INFORMACIÓN METAR y TAF
METAR FOR EGKK
ADDS - METARS form results

(2214 UTC 17 January 2020)
Data provider http://aviationweather.gov/metar/data/
 
METAR text: EGKK 172150Z 22005KT CAVOK 03/02 Q1019
Conditions at: EGKK (LONDON/GATWICK A, GB) observed 2150 UTC 17 January 2020
Temperature: 3.0°C (37°F)
Dewpoint: 2.0°C (36°F) [RH = 93%]
Pressure (altimeter): 30.09 inches Hg (1019.0 mb)
Winds: from the SW (220 degrees) at 6 MPH (5 knots; 2.6 m/s)
Visibility: 6 or more miles (10+ km)
Ceiling: ceiling and visibility are OK
Clouds: unknown
Weather: no significant weather observed at this time

METAR text: EGKK 172120Z 21004KT CAVOK 03/02 Q1018
Conditions at: EGKK (LONDON/GATWICK A, GB) observed 2120 UTC 17 January 2020
Temperature: 3.0°C (37°F)
Dewpoint: 2.0°C (36°F) [RH = 93%]
Pressure (altimeter): 30.06 inches Hg (1018.0 mb)
Winds: from the SSW (210 degrees) at 5 MPH (4 knots; 2.1 m/s)
Visibility: 6 or more miles (10+ km)
Ceiling: ceiling and visibility are OK
Clouds: unknown
Weather: no significant weather observed at this time

Forecast for: AMD
Text: TAF AMD EGKK 172034Z 1720/1824 VRB04KT CAVOK
Forecast period: 2000 UTC 17 January 2020 to 0000 UTC 19 January 2020
Forecast type: FROM: standard forecast or significant change
Winds: variable direction winds at 5 MPH (4 knots; 2.1 m/s)
Visibility: 6 or more miles 10+ km)
Ceiling: unknown
Clouds: missing
Weather: NSW  (no significant weather)
Text: PROB30 1802/1808 8000
Forecast period: 0200 to 0800 UTC 18 January 2020
Forecast type: PROBABLE: 30 percent likelihood of the following during this time
Visibility: 5 miles (8 km)
Ceiling: unknown
Clouds: missing
Weather: no significant weather forecast for this period
Text: PROB30 1821/1824 8000
Forecast period: 2100 UTC 18 January 2020 to 0000 UTC 19 January 2020
Forecast type: PROBABLE: 30 percent likelihood of the following during this time
Visibility: 5 miles (8 km)
Ceiling: unknown
Clouds: missing
Weather: no significant weather forecast for this period

MAPA DE AEROPUERTO

INFORMACIÓN DE PISTA
Pista 08L Longitud 8415 ft Ancho 148 ft
Elevación 195 ft Umbral desplazado 1053 ft Rumbo de pista 78
Pista 26R Longitud 8415 ft Ancho 148 ft
Elevación 195 ft Umbral desplazado 1366 ft Rumbo de pista 258
Pista 08R Longitud 10364 ft Ancho 148 ft
Elevación 196 ft Umbral desplazado 1288 ft Rumbo de pista 78
Pista 26L Longitud 10364 ft Ancho 148 ft
Elevación 196 ft Umbral desplazado 878 ft Rumbo de pista 258

FRECUANCIAS DEL AEROPUERTO
Tipo APP Nombre APP Frecuencia 126.825 MHZ
Tipo ATIS Nombre ATIS Frecuencia 136.525 MHZ
Tipo CLD Nombre CLNC DEL Frecuencia 121.95 MHZ
Tipo GND Nombre GND Frecuencia 121.8 MHZ
Tipo TWR Nombre TWR Frecuencia 124.225 MHZ

RADIO AYUDAS DEL AEROPUERTO
Tipo NDB Nombre Gatwick Frecuencia 338 KHZ
Tipo NDB Nombre Gatwick Frecuencia 365 KHZ